Carlson Law Firm's Thanksgiving Day Turkey Trot

Overall Finish List

November 28, 2013


Results By Pro-Fit Event Services LLC - Belton, TX

5K

Place Name City Bib No Age Gender Age Group Total Time Pace
1 Silvester Harrison 1089 19 M 1 Top Fin 15:48.4 5:06/M
2 Zach Walling Portales NM 1554 20 M 1 20-24 16:19.5 5:16/M
3 Tony Orozco Belton TX 1618 39 M 1 35-39 18:04.7 5:50/M
4 Larry Lancaster 1190 51 M 1 50-54 18:09.1 5:51/M
5 Lowell Koppel 1176 41 M 1 40-44 18:24.8 5:56/M
6 Devin Hlavenka 1114 18 M 1 15-19 18:38.9 6:01/M
7 Andrew Steadman Harker Heights TX 1422 35 M 2 35-39 18:47.2 6:04/M
8 Steve Walden Killeen TX 1479 44 M 2 40-44 18:54.1 6:06/M
9 Rick Downs Temple TX 1625 52 M 2 50-54 18:55.9 6:06/M
10 Aaron Johnstone Temple TX 1142 34 M 1 30-34 19:09.0 6:11/M
11 Katelin Huckabee Belton TX 1566 19 F 1 Top Fin 19:14.6 6:12/M
12 Michael Mercado Holy Trinity TX 1253 16 M 2 15-19 19:30.2 6:17/M
13 Felix Rippy Austin TX 1563 51 M 3 50-54 19:32.4 6:18/M
14 James Minshew Killeen TX 1542 27 M 1 25-29 19:34.5 6:19/M
15 Israel De La Fuente 982 14 M 1 10-14 19:35.9 6:19/M
16 Kyle Beran Midland TX 1529 46 M 1 45-49 19:52.2 6:25/M
17 John Escovedo 1000 17 M 3 15-19 20:05.1 6:29/M
18 Nicholas Pritchett Salado TX 1346 33 M 2 30-34 20:11.5 6:31/M
19 John Anderson Pflugerville 1564 47 M 2 45-49 20:13.7 6:31/M
20 Luke Markham Salado 1235 14 M 2 10-14 20:14.4 6:32/M
21 Jeffrey Vancuran 1460 25 M 2 25-29 20:16.4 6:32/M
22 Robert Stenman 1424 18 M 4 15-19 20:21.3 6:34/M
23 Adam Bishop Killeen TX 899 25 M 3 25-29 20:26.9 6:35/M
24 Jared Kuhl 1183 26 M 4 25-29 20:35.0 6:38/M
25 Vincent Pesce Mountain Top PA 1553 24 M 2 20-24 20:37.0 6:39/M
26 Thomas Ribas Harker Heights TX 1533 31 M 3 30-34 20:51.1 6:44/M
27 Billy Wren Belton TX 1633 43 M 3 40-44 21:02.5 6:47/M
28 Paul Wirth Lorena TX 1503 48 M 3 45-49 21:08.8 6:49/M
29 Jarod Taylor Belton TX 1569 27 M 5 25-29 21:19.1 6:53/M
30 Rob Sanders Waco 1527 61 M 1 60-64 21:24.0 6:54/M
31 Scott Seela Temple TX 1619 44 M 4 40-44 21:31.5 6:56/M
32 Pamela Rusinko Killeen TX 1543 27 F 1 25-29 21:33.4 6:57/M
33 Ventura Gallegos Bruceville TX 1037 39 M 3 35-39 21:39.8 6:59/M
34 Oliver Dubie 995 22 M 3 20-24 21:42.7 7:00/M
35 Keith Dawson Belton TX 981 33 M 4 30-34 21:48.1 7:02/M
36 Eric Trevino Denton TX 1559 22 M 4 20-24 21:48.5 7:02/M
37 Jennifer Wells 1490 26 F 2 25-29 21:56.1 7:05/M
38 Lexi Phelps Temple TX 1323 17 F 1 15-19 21:58.0 7:05/M
39 Kim Lieb Black Hawk CO 1538 42 F 1 40-44 22:06.2 7:08/M
40 Patrick Jr. Anderson 851 23 M 5 20-24 22:10.5 7:09/M
41 Gabriel Ramirez 1348 37 M 4 35-39 22:17.6 7:11/M
42 Lane Holmes Belton TX 1589 15 M 5 15-19 22:18.6 7:12/M
43 Dominic Blake 901 17 M 6 15-19 22:28.3 7:15/M
44 Christopher Walker 1482 17 M 7 15-19 22:29.3 7:15/M
45 Debbie Miranda Temple TX 1584 34 F 1 30-34 22:29.9 7:15/M
46 Joe Nash 1291 20 M 6 20-24 22:40.0 7:19/M
47 Sebastian Terneus 1440 27 M 6 25-29 22:40.0 7:19/M
48 Lauren Baird San Antonio,tx 78230 873 34 F 2 30-34 22:41.0 7:19/M
49 Niles Haich 1078 32 M 5 30-34 22:43.2 7:20/M
50 Allegra Steinfort Harker Heights TX 1617 39 F 1 35-39 22:48.5 7:21/M
51 Kelly Huckabee Belton TX 1567 15 F 2 15-19 22:50.8 7:22/M
52 Jennifer Mapes Fort Hood TX 1230 34 F 3 30-34 22:53.6 7:23/M
53 Charles Nantz 1288 40 M 5 40-44 22:54.4 7:23/M
54 Sean Luce Belton TX 1544 42 M 6 40-44 22:55.6 7:24/M
55 Robert Hensley 1104 40 M 7 40-44 22:58.1 7:25/M
56 Chris Breaux Temple TX 917 15 M 8 15-19 22:59.0 7:25/M
57 Kristofer Saenz Cibolo TX 1620 24 M 7 20-24 23:04.6 7:26/M
58 Rsfaez Brito 1629 38 M 5 35-39 23:07.7 7:27/M
59 Toby Soltermann 1521 39 M 6 35-39 23:11.3 7:29/M
60 Stephen Simecek Nolanville TX 1406 36 M 7 35-39 23:11.4 7:29/M
61 Shawn Stanley 1419 34 M 6 30-34 23:12.8 7:29/M
62 Joshua Hensley 1103 15 M 9 15-19 23:13.5 7:29/M
63 Che Buval 934 42 M 8 40-44 23:13.6 7:29/M
64 Christine Rodriguez Temple,tx 76504-7835 TX 1368 47 F 1 45-49 23:18.3 7:31/M
65 Steve Dryer Temple TX 1571 42 M 9 40-44 23:19.0 7:31/M
66 Andre Erwin 999 35 M 8 35-39 23:20.4 7:32/M
67 Ben Baecker Rogers TX 868 22 M 8 20-24 23:24.5 7:33/M
68 Blair Severson Holland TX 1555 20 M 9 20-24 23:25.0 7:33/M
69 Kevin Nesmith Georgetown TX 1296 42 M 10 40-44 23:30.6 7:35/M
70 James Paxton Smith 1411 17 M 10 15-19 23:31.4 7:35/M
71 Gabriel Lane Temple TX 1192 28 M 7 25-29 23:32.8 7:35/M
72 Janae Maher Temple TX 1223 31 F 4 30-34 23:35.0 7:36/M
73 Austin Snider 1415 16 M 11 15-19 23:35.3 7:36/M
74 Ed Lee Copperas Cove TX 1202 41 M 11 40-44 23:35.8 7:36/M
75 Pete Boulette Temple TX 910 65 M 1 65-69 23:39.2 7:38/M
76 Gustavo Vargas Lara 1520 26 M 8 25-29 23:40.7 7:38/M
77 Nathan Hoelscher 1115 30 M 7 30-34 23:46.1 7:40/M
78 Robert Trottmann San Antonio,tx 78230 1607 34 M 8 30-34 23:50.8 7:41/M
79 Chase Mondrik 1268 20 M 10 20-24 23:56.4 7:43/M
80 Brian Kromer 1179 46 M 4 45-49 24:00.3 7:45/M
81 Djenne Maldonado Temple TX 1570 23 F 1 20-24 24:05.4 7:46/M
82 Tyler Boyd 12626 Romberg Rd., Hollan TX 913 28 F 3 25-29 24:06.7 7:46/M
83 Tanya Taylor Temple TX 1605 33 F 5 30-34 24:08.1 7:47/M
84 Cecilia Gomez Temple 1050 17 F 3 15-19 24:09.4 7:47/M
85 Matthew Schwindt 1389 22 M 11 20-24 24:09.6 7:47/M
86 Peter, Jr Barajas Temple TX 875 53 M 4 50-54 24:20.0 7:51/M
87 Clinton Sharp Temple 1398 31 M 9 30-34 24:21.4 7:51/M
88 Vance Flores 1024 29 M 9 25-29 24:28.3 7:54/M
89 Karson Moore 1275 10 M 3 10-14 24:28.7 7:54/M
90 James Rogers Dallas 1372 51 M 5 50-54 24:31.6 7:55/M
91 William Reichl Temple TX 1351 11 M 4 10-14 24:33.1 7:55/M
92 Brigid Pickett 1332 24 F 2 20-24 24:36.6 7:56/M
93 Jeffrey Pickett 1331 23 M 12 20-24 24:36.6 7:56/M
94 Kevin Fisher 1022 44 M 12 40-44 24:38.8 7:57/M
95 Greg Cody 960 37 M 9 35-39 24:40.2 7:57/M
96 Judas Vriseno Temple TX 1616 40 M 13 40-44 24:40.3 7:57/M
97 Luis Gonzalez Temple TX 1603 20 M 13 20-24 24:50.7 8:01/M
98 Chelsea Munoz 1282 26 F 4 25-29 24:54.7 8:02/M
99 Kaci Scott 1390 24 F 3 20-24 24:57.2 8:03/M
100 Nicholas Ramirez 1630 13 M 5 10-14 24:57.3 8:03/M
 
Place Name City Bib No Age Gender Age Group Total Time Pace
101 Randy Pinkston Temple TX 1333 57 M 1 55-59 25:00.8 8:04/M
102 Patrick Brann Flower Mound TX 914 38 M 10 35-39 25:01.4 8:04/M
103 Meagan Meyer 1260 29 F 5 25-29 25:03.5 8:05/M
104 Lachelle Acosta Temple TX 838 28 F 6 25-29 25:07.0 8:06/M
105 Christina Morgan 1278 30 F 6 30-34 25:10.3 8:07/M
106 Simon Pinkston Holy Trinity 1334 16 M 12 15-19 25:12.2 8:08/M
107 Bruce Matous 1240 53 M 6 50-54 25:12.2 8:08/M
108 Jason Lambert Little River TX 1188 35 M 11 35-39 25:12.8 8:08/M
109 Joshua Pressley 1345 38 M 12 35-39 25:13.8 8:08/M
110 Josie Vargas Lara 1519 25 F 7 25-29 25:17.0 8:09/M
111 Elaine Farbo Temple TX 1004 14 F 1 10-14 25:17.3 8:09/M
112 Lane Elizondo Austin TX 1524 10 M 6 10-14 25:19.1 8:10/M
113 Trisha Elizondo Austin TX 1525 37 F 2 35-39 25:19.7 8:10/M
114 Lisa Griffin 400 W Jasper, Killeen, Tx TX 1064 38 F 3 35-39 25:24.6 8:12/M
115 Shawn Griffin Killeen TX 1065 39 M 13 35-39 25:24.7 8:12/M
116 Madilyn Dryer Temple TX 1578 12 F 2 10-14 25:28.8 8:13/M
117 Matthew Lensing Harker Heights TX 1204 28 M 10 25-29 25:29.6 8:13/M
118 Kelsee Ferguson 1009 19 F 4 15-19 25:29.9 8:13/M
119 Fene Shoemaker Houston TX 1401 41 F 2 40-44 25:30.6 8:14/M
120 Marilyn Mapes 1232 61 F 1 60-64 25:33.3 8:15/M
121 Heather Tatum 1435 39 F 4 35-39 25:34.2 8:15/M
122 Robert Lindberg 1209 48 M 5 45-49 25:34.5 8:15/M
123 Casey Weghorst 1487 32 F 7 30-34 25:35.2 8:15/M
124 Curtis McClain 1246 20 M 14 20-24 25:35.6 8:15/M
125 James Anderson Killeen TX 852 22 M 15 20-24 25:35.9 8:15/M
126 Ross Gonzales 1054 17 M 13 15-19 25:38.7 8:16/M
127 Jalendra Shrestha 1405 27 M 11 25-29 25:43.0 8:18/M
128 Matthew Enriquez Pearland TX 1583 29 M 12 25-29 25:46.3 8:19/M
129 Elijah Hensley 1101 12 M 7 10-14 25:47.1 8:19/M
130 Stephen Crawford Temple TX 973 53 M 7 50-54 25:47.8 8:19/M
131 Beth Smith Temple TX 1606 52 F 1 50-54 25:51.4 8:20/M
132 Henry Garza Temple TX 1545 57 M 2 55-59 25:52.2 8:21/M
133 James Richardson Temple TX 1359 54 M 8 50-54 25:52.2 8:21/M
134 Julie Gallaway Belton TX 1034 37 F 5 35-39 25:53.8 8:21/M
135 Pamela Holwerda 2006 Ledgestone Drive, Ki TX 1118 53 F 2 50-54 26:02.2 8:24/M
136 Jennifer Stenman Houston TX 1423 25 F 8 25-29 26:02.4 8:24/M
137 Miranda Walker Temple TX 1593 41 F 3 40-44 26:07.0 8:25/M
138 Steve Haywood 1098 53 M 9 50-54 26:08.5 8:26/M
139 Carol Kimmel 4904 Velma Dr., Killeen, TEXAS 1169 50 F 3 50-54 26:10.3 8:26/M
140 Veronica Alonzo Temple TX 844 39 F 6 35-39 26:17.0 8:29/M
141 Melinda Kunz Temple TX 1184 38 F 7 35-39 26:18.2 8:29/M
142 Donald Scott 1392 25 M 13 25-29 26:20.2 8:30/M
143 Ridique Rodriguez Killeen TX 1365 13 M 8 10-14 26:20.5 8:30/M
144 Patrick Anderson Killeen TX 845 49 M 6 45-49 26:21.5 8:30/M
145 Brittani Cook 970 20 F 4 20-24 26:21.7 8:30/M
146 Angela Fisher Temple TX 1021 44 F 4 40-44 26:25.8 8:31/M
147 Michael-Jarryd Lara 1194 13 M 9 10-14 26:26.9 8:32/M
148 Mixila Arauz 856 45 F 2 45-49 26:28.1 8:32/M
149 Lora Ann Farbo Temple TX 1005 47 F 3 45-49 26:31.0 8:33/M
150 Melissa Arjon Temple TX 857 34 F 8 30-34 26:31.2 8:33/M
151 Adrianna Schlaefer Temple TEXAS 1378 12 F 3 10-14 26:33.6 8:34/M
152 Elizabeth Crawford Temple TX 974 25 F 9 25-29 26:36.6 8:35/M
153 Bailey Bedichek Coppell TX 1537 17 F 5 15-19 26:38.8 8:35/M
154 Shelly Gazette Temple TEXAS 1044 41 F 5 40-44 26:39.7 8:36/M
155 Bret Sellers 1394 36 M 14 35-39 26:41.4 8:36/M
156 Cam Lewis 2710 Cunningham Rd. #2610 1206 41 M 14 40-44 26:45.2 8:38/M
157 Patrick Munoz 1283 33 M 10 30-34 26:47.9 8:38/M
158 Shannan Jurina 1156 35 F 8 35-39 26:57.8 8:42/M
159 Paul Castor Belton TX 1572 63 M 2 60-64 26:58.0 8:42/M
160 Jessica Carney 936 27 F 10 25-29 26:59.5 8:42/M
161 Brandon Stone 1429 29 M 14 25-29 27:03.0 8:44/M
162 Erica Mueller Temple TEXAS 1280 24 F 5 20-24 27:03.1 8:44/M
163 Laura Schuler 1380 34 F 9 30-34 27:08.0 8:45/M
164 Megan Wolfe Round Rock 1517 30 F 10 30-34 27:09.3 8:45/M
165 James Villanueva Temple TX 1532 31 M 11 30-34 27:11.5 8:46/M
166 Ricardo Villanueva 1474 43 M 15 40-44 27:11.6 8:46/M
167 Jake Roby San Antonio TX 1591 24 M 16 20-24 27:13.3 8:47/M
168 Scott Rogers 1370 30 M 12 30-34 27:15.2 8:47/M
169 Robert Johnson 1141 56 M 3 55-59 27:18.9 8:48/M
170 Jim Airhart 839 42 M 16 40-44 27:19.2 8:49/M
171 Dedan Rodriguez 1364 33 M 13 30-34 27:19.7 8:49/M
172 Gary Malcik 1226 60 M 3 60-64 27:21.7 8:49/M
173 Mary Jo Bates 887 58 F 1 55-59 27:22.6 8:50/M
174 Witt Grooms Pearland TX 1577 10 M 10 10-14 27:22.6 8:50/M
175 Nathan Grigsby Belton TX 1066 28 M 15 25-29 27:25.7 8:51/M
176 Donald Hightower Troy TX 1111 40 M 17 40-44 27:26.8 8:51/M
177 Brandi Bingham 896 29 F 11 25-29 27:26.9 8:51/M
178 Lacey M. Mc Kenzie 1242 36 F 9 35-39 27:27.2 8:51/M
179 Doug Bedichek Coppell TX 1535 45 M 7 45-49 27:27.8 8:51/M
180 Tom Rogers Temple TX 1562 63 M 4 60-64 27:29.6 8:52/M
181 Erin Rogers 1369 30 F 11 30-34 27:29.9 8:52/M
182 Christi Stephens 1425 28 F 12 25-29 27:30.2 8:52/M
183 Kourtney Ferguson 1008 19 F 6 15-19 27:34.7 8:54/M
184 Brittney Bryant 929 21 F 6 20-24 27:36.3 8:54/M
185 Carlos Barbosa 877 31 M 14 30-34 27:37.4 8:55/M
186 Amy Taylor Temple TX 1436 38 F 10 35-39 27:37.9 8:55/M
187 Glenn Green Huntsville TX 1062 51 M 10 50-54 27:38.4 8:55/M
188 Alex Jacobs Copperas Cove TX 1131 15 M 14 15-19 27:40.7 8:55/M
189 Mason Lambert Little River TX 1187 10 M 11 10-14 27:41.6 8:56/M
190 John Hlmes Belton TX 1588 17 M 15 15-19 27:41.7 8:56/M
191 Alison Cook Temple TX 969 37 F 11 35-39 27:47.4 8:58/M
192 Jason Ventura 1472 31 M 15 30-34 27:48.6 8:58/M
193 Renee Ventura 1471 30 F 12 30-34 27:48.9 8:58/M
194 Maria Molina Killeen TX 1523 35 F 12 35-39 27:50.4 8:59/M
195 James Homes Georgetown TX 1586 22 M 17 20-24 27:52.2 8:59/M
196 Angela Cases 942 28 F 13 25-29 27:53.8 9:00/M
197 Brianna Velarde Killeen TX 1469 19 F 7 15-19 27:54.7 9:00/M
198 Emily Jones 1149 27 F 14 25-29 27:55.5 9:00/M
199 Thomas Mosmeyer Holy Trinity 1279 15 M 16 15-19 27:56.3 9:01/M
200 Christopher Kuhl 1181 29 M 16 25-29 27:56.4 9:01/M
 
Place Name City Bib No Age Gender Age Group Total Time Pace
201 Lorin Daeger 978 26 F 15 25-29 27:56.9 9:01/M
202 Zayne Clayton Holy Trinity 954 15 F 8 15-19 27:57.5 9:01/M
203 Jackie Haynes Temple TX 1096 56 F 2 55-59 27:57.9 9:01/M
204 Kim Cyr 977 15 F 9 15-19 27:59.4 9:02/M
205 Daniel Allen 840 31 M 16 30-34 28:01.1 9:02/M
206 Jeffrey Thigpen 1441 31 M 17 30-34 28:01.9 9:02/M
207 Byron Nelson Temple,tx 76504 TX 1293 53 M 11 50-54 28:03.0 9:03/M
208 Hannah Kelley Belton TX 1159 11 F 4 10-14 28:03.4 9:03/M
209 Brandon Wilde Temple TX 1565 25 M 17 25-29 28:04.8 9:03/M
210 Kimberly Velarde Killeen TX 1467 50 F 4 50-54 28:08.5 9:05/M
211 Julia Lensing Harker Heights TX 1205 29 F 16 25-29 28:13.0 9:06/M
212 Martin Gaskell Belton TX 1561 60 M 5 60-64 28:14.7 9:06/M
213 Kevin Huddleston 1124 51 M 12 50-54 28:14.8 9:06/M
214 Susan Willett Temple 1496 50 F 5 50-54 28:16.2 9:07/M
215 Kaylenn Henderson Temple TX 1100 38 F 13 35-39 28:16.6 9:07/M
216 Hannah Kuhl 1180 27 F 17 25-29 28:17.5 9:07/M
217 Todd Sukany 1431 55 M 4 55-59 28:18.4 9:08/M
218 Marcos Gomez 1049 27 M 18 25-29 28:18.5 9:08/M
219 Heather Wirth Lorena TX 1502 32 F 13 30-34 28:19.6 9:08/M
220 Janice Roberts Belton TX 1362 40 F 6 40-44 28:19.6 9:08/M
221 Claude Ross Temple TX 1375 48 M 8 45-49 28:24.5 9:10/M
222 Kyle Fischer 1017 32 M 18 30-34 28:24.7 9:10/M
223 Lindsey Anderson 849 24 F 7 20-24 28:25.2 9:10/M
224 Amanda Riley Temple,tx 76502 1361 26 F 18 25-29 28:27.0 9:11/M
225 Amber Kunz Temple TX 1185 13 F 5 10-14 28:28.3 9:11/M
226 Hanna Kohlmeier Temple TX 1574 12 F 6 10-14 28:30.0 9:12/M
227 Adrian Rodriguez 1363 28 F 19 25-29 28:32.6 9:12/M
228 Cody Blount Belton TX 904 40 M 18 40-44 28:33.5 9:13/M
229 Michael Wilde Temple TX 1495 26 M 19 25-29 28:35.4 9:13/M
230 Rachel Guajardo 1070 23 F 8 20-24 28:45.1 9:16/M
231 Brian Mercado 1254 13 M 12 10-14 28:48.7 9:17/M
232 Bethany Munson 1285 16 F 10 15-19 28:51.9 9:18/M
233 Cathy Cleveland Salado 956 48 F 4 45-49 28:56.2 9:20/M
234 Wayne Cleveland Salado TX 955 47 M 9 45-49 28:56.2 9:20/M
235 Dominga Anderson 4907 White Rock Dr. Kille TX 846 49 F 5 45-49 28:59.0 9:21/M
236 Meriel Bloomfield 902 25 F 20 25-29 28:59.2 9:21/M
237 Noel Harrison 1090 44 M 19 40-44 29:03.5 9:22/M
238 Mary Davila 980 52 F 6 50-54 29:04.8 9:23/M
239 Kristi Ramirez 1632 31 F 14 30-34 29:05.9 9:23/M
240 Emily Steadman Harker Heights TX 1421 35 F 14 35-39 29:10.4 9:25/M
241 Angela Willis 1497 34 F 15 30-34 29:11.9 9:25/M
242 Danielle Troxell Temple TX 1449 27 F 21 25-29 29:13.9 9:25/M
243 Chris Daeger 979 37 M 15 35-39 29:15.0 9:26/M
244 Jacob Bundick 930 35 M 16 35-39 29:19.1 9:27/M
245 Guy Bass 883 43 M 20 40-44 29:19.1 9:27/M
246 Mary Beth Scott 1391 36 F 15 35-39 29:20.6 9:28/M
247 Laura Green 1063 47 F 6 45-49 29:24.8 9:29/M
248 Martin Mercado 1252 40 M 21 40-44 29:27.7 9:30/M
249 Sean Palmer 1307 39 M 17 35-39 29:33.9 9:32/M
250 Tracy Trumble 1450 38 F 16 35-39 29:37.6 9:33/M
251 Kathrine Enriquez Austin TX 1581 25 F 22 25-29 29:42.4 9:35/M
252 Mali Valdez Temple TX 1458 25 F 23 25-29 29:43.0 9:35/M
253 Grant Sellers 1396 11 M 13 10-14 29:43.1 9:35/M
254 Michael Stokke Harker Heights,tx 76548 TX 1635 42 M 22 40-44 29:45.8 9:36/M
255 Sydney Shoemaker Houston TX 1403 17 F 11 15-19 29:50.3 9:37/M
256 Awbrey Lovrien-Moore Temple TX 1216 36 F 17 35-39 29:52.9 9:38/M
257 Christopher Gonzales 1052 12 M 14 10-14 29:54.4 9:39/M
258 Lainie Shook Belton TX 1404 42 F 7 40-44 29:56.0 9:39/M
259 Jason Pearson 1317 40 M 23 40-44 29:56.2 9:39/M
260 Cesar Moore Temple TX 1271 40 M 24 40-44 29:59.9 9:40/M
261 Carly Moore 1272 12 F 7 10-14 30:00.2 9:41/M
262 Alfred Knight 1172 67 M 2 65-69 30:07.1 9:43/M
263 Tiffany Krueger Temple TX 1604 38 F 18 35-39 30:10.6 9:44/M
264 Catherine Lowry 1217 15 F 12 15-19 30:14.2 9:45/M
265 Rebeca Lindberg 1208 16 F 13 15-19 30:14.7 9:45/M
266 Alejandro Jose Arroliga 862 14 M 15 10-14 30:16.4 9:46/M
267 Anne Hauck Belton TX 1091 19 F 14 15-19 30:21.4 9:47/M
268 Sabrina Nicholson Killeen TX 1298 33 F 16 30-34 30:27.8 9:49/M
269 Christine Purdy 1347 45 F 7 45-49 30:28.6 9:50/M
270 Haley Brown Round Rock TX 925 38 F 19 35-39 30:30.0 9:50/M
271 Harry Johnstone 1143 26 M 20 25-29 30:30.5 9:50/M
272 Jaime Hernandez Rivera Temple TX 1550 41 M 25 40-44 30:31.1 9:51/M
273 Deborah Colon Temple TX 1549 36 F 20 35-39 30:32.5 9:51/M
274 Renee Stoughton Nolanville TX 1430 32 F 17 30-34 30:32.9 9:51/M
275 Madi Holmes Belton TX 1587 20 F 9 20-24 30:34.0 9:52/M
276 Matt Howard 1121 37 M 18 35-39 30:35.5 9:52/M
277 Jennifer Howard 1120 36 F 21 35-39 30:36.3 9:52/M
278 Joshua Pearson 1319 34 M 19 30-34 30:37.1 9:53/M
279 Ron Schultz 1381 36 M 19 35-39 30:38.8 9:53/M
280 Lisa Walker Temple TX 1484 46 F 8 45-49 30:40.9 9:54/M
281 Katherine Shreder Harker Heights TX 1539 26 F 24 25-29 30:41.3 9:54/M
282 Katie Jacobs Copperas Cove TX 1134 13 F 8 10-14 30:45.2 9:55/M
283 Chris Jacobs 1132 44 M 26 40-44 30:45.5 9:55/M
284 Kristy Decker Temple TX 1541 35 F 22 35-39 30:47.3 9:56/M
285 Kasi Jackson Temple TX 1130 27 F 25 25-29 30:54.9 9:58/M
286 Austreberto Avila 711 S. Penelope, Belton, TX 866 51 M 13 50-54 30:56.7 9:59/M
287 Luke Leavelle 1198 8 M 1 1- 9 30:57.6 9:59/M
288 Marcelina Nieves Lavernia TX 1611 15 M 17 15-19 30:58.2 9:59/M
289 Naomi Munson 1284 23 F 10 20-24 31:04.0 10:01/M
290 Lindsay Fredenburg Belton TX 1030 30 F 18 30-34 31:04.5 10:01/M
291 Bob Breaux TEMPLE,TX 76502 TX 916 60 M 6 60-64 31:09.8 10:03/M
292 Amy L. Larson 1195 38 F 23 35-39 31:10.1 10:03/M
293 Rachel Bollinger 906 39 F 24 35-39 31:10.8 10:03/M
294 Melissa Potchad 1342 27 F 26 25-29 31:12.3 10:04/M
295 Timothy Gaskell Belton TX 1560 23 M 18 20-24 31:15.8 10:05/M
296 Mary Lindberg Temple TX 1207 19 F 15 15-19 31:16.7 10:05/M
297 Gillian Harris 1088 33 F 19 30-34 31:20.9 10:06/M
298 Hilde Germann Temple TX 1045 55 F 3 55-59 31:24.5 10:08/M
299 Simone Tucker 1452 39 F 25 35-39 31:27.0 10:09/M
300 Jamie Barrera 878 29 F 27 25-29 31:27.6 10:09/M
 
Place Name City Bib No Age Gender Age Group Total Time Pace
301 Estella Phelps 1518 60 F 2 60-64 31:27.9 10:09/M
302 Braden Bedichek Coppell TX 1536 15 F 16 15-19 31:29.3 10:09/M
303 Corie Hawkins 1093 33 F 20 30-34 31:30.1 10:10/M
304 Charlie Potchad 1344 65 F 1 65-69 31:30.4 10:10/M
305 Amy Appenzeller Copperas Cove TX 1548 30 F 21 30-34 31:30.7 10:10/M
306 Karen Jarred Chanute KS 1137 54 F 7 50-54 31:31.3 10:10/M
307 Melissa Clifton 958 36 F 26 35-39 31:37.6 10:12/M
308 Tammye Baecker Rogers TX 867 55 F 4 55-59 31:37.8 10:12/M
309 Bobbie Williamson Harker Heights TX 1540 21 F 11 20-24 31:40.1 10:13/M
310 Tyler Filer 1015 11 M 16 10-14 31:41.2 10:13/M
311 Jett Millsap 1267 8 M 2 1- 9 31:42.3 10:14/M
312 Sabrina Dutkanicz 996 25 F 28 25-29 31:42.3 10:14/M
313 Ky Hoelscher 1116 33 M 20 30-34 31:44.5 10:14/M
314 Courtney Mapes 1229 34 F 22 30-34 31:48.2 10:15/M
315 Jun Binghay Temple,tx 76502 TEXAS 897 43 M 27 40-44 31:48.4 10:15/M
316 Kara Mapes 1231 11 F 9 10-14 31:49.0 10:16/M
317 James Elizondo Austin TX 1526 38 M 20 35-39 31:49.4 10:16/M
318 Ashley Koppel 1177 40 F 8 40-44 31:56.0 10:18/M
319 Colleen Harvey Temple TX 1594 31 F 23 30-34 31:58.8 10:19/M
320 Jason Leavelle 1199 42 M 28 40-44 31:59.0 10:19/M
321 Robert Aranda Temple TX 855 40 M 29 40-44 31:59.2 10:19/M
322 Brittany Wentz Temple TX 1491 27 F 29 25-29 32:00.3 10:19/M
323 Asha McClain 1621 23 F 12 20-24 32:01.8 10:20/M
324 La Donna Reyna 1356 51 F 8 50-54 32:02.3 10:20/M
325 Gil Eckrich Belton TX 997 65 M 3 65-69 32:03.4 10:20/M
326 Alice McClain 1244 48 F 9 45-49 32:03.5 10:20/M
327 Taylor Bresciani Fort Hood TX 918 21 F 13 20-24 32:04.9 10:21/M
328 Jordan Bresciani 919 24 M 19 20-24 32:05.0 10:21/M
329 Lloyd Joyce 1153 79 M 1 75-99 32:07.6 10:22/M
330 Matthew Mapes Jr 1234 8 M 3 1- 9 32:09.0 10:22/M
331 Matthew Mapes 1233 37 M 21 35-39 32:09.8 10:22/M
332 Josh Bandy 1522 32 M 21 30-34 32:10.7 10:23/M
333 Trent Gallaway Belton TEXAS 1036 7 M 4 1- 9 32:12.2 10:23/M
334 Trey Gallaway 1035 38 M 22 35-39 32:12.3 10:23/M
335 Linda Mahan Temple TX 1222 47 F 10 45-49 32:13.4 10:24/M
336 Julia Mendez 1249 33 F 24 30-34 32:13.8 10:24/M
337 Jacob Donnell 993 30 M 22 30-34 32:14.3 10:24/M
338 Alicia Lister 1211 30 F 25 30-34 32:14.4 10:24/M
339 Christopher Lister 1212 32 M 23 30-34 32:14.5 10:24/M
340 Joseph Pickett Temple TX 1330 20 M 20 20-24 32:15.0 10:24/M
341 Margaret Bland 1624 29 F 30 25-29 32:28.9 10:28/M
342 Carly Donnell 992 30 F 26 30-34 32:30.0 10:29/M
343 Jessica Skaggs 1407 35 F 27 35-39 32:30.0 10:29/M
344 Michelle Ruff 1376 41 F 9 40-44 32:35.0 10:31/M
345 Deann Corral 971 25 F 31 25-29 32:36.3 10:31/M
346 John R. Bowling 912 63 M 7 60-64 32:36.8 10:31/M
347 Jaclyn Hawtin 1095 30 F 27 30-34 32:37.3 10:31/M
348 Garry Reagan 1350 38 M 23 35-39 32:37.8 10:31/M
349 Christopher Larson 1196 36 M 24 35-39 32:41.4 10:33/M
350 Brandy Burns 931 33 F 28 30-34 32:42.0 10:33/M
351 Kirsten Vandyke 1463 22 F 14 20-24 32:43.3 10:33/M
352 Cheryl Nelson Temple TX 1294 53 F 9 50-54 32:43.3 10:33/M
353 Jackie Aranda Temple TX 854 37 F 28 35-39 32:43.8 10:33/M
354 Beau Vandyke Temple,tx 76501 1462 27 M 21 25-29 32:44.0 10:34/M
355 Julia Jones 1150 15 F 17 15-19 32:45.4 10:34/M
356 Kara Trevino Belton TX 1599 35 F 29 35-39 32:47.6 10:35/M
357 Joseph Gonzales 1051 41 M 30 40-44 32:52.1 10:36/M
358 Nathan Koppel 1178 10 M 17 10-14 32:52.1 10:36/M
359 Caleb Gonzales 1053 10 M 18 10-14 32:53.3 10:36/M
360 Paul Shoemaker Houston TX 1402 43 M 31 40-44 32:53.8 10:36/M
361 Susan Sstokke 1418 40 F 10 40-44 32:56.4 10:37/M
362 Kelly Brown Belton TX 1615 30 F 29 30-34 32:57.4 10:38/M
363 Holly Kohlmeier 1579 11 F 10 10-14 32:59.0 10:38/M
364 Jessie Ramire 1631 29 M 22 25-29 33:00.9 10:39/M
365 Bailey Tucker 1451 12 F 11 10-14 33:03.5 10:40/M
366 Leta Pickett Temple TX 1327 20 F 15 20-24 33:07.2 10:41/M
367 Samantha Kuhl Waco TX 1182 27 F 32 25-29 33:07.6 10:41/M
368 Jillian Bishop Killeen 898 24 F 16 20-24 33:09.5 10:42/M
369 Kari Haywood Dallas TX 1097 52 F 10 50-54 33:12.2 10:43/M
370 Karen Oliver Troy TX 1301 50 F 11 50-54 33:13.9 10:43/M
371 Janine Firment 1016 32 F 30 30-34 33:15.1 10:44/M
372 Austin Skaggs 1408 34 M 24 30-34 33:16.2 10:44/M
373 Mike Keating 1158 41 M 32 40-44 33:18.7 10:45/M
374 Kiki Anderson 853 28 F 33 25-29 33:19.6 10:45/M
375 Stone Cheatum 947 13 M 19 10-14 33:22.9 10:46/M
376 Jason Cheatum 946 38 M 25 35-39 33:24.8 10:46/M
377 Matthew Potchad 1341 33 M 25 30-34 33:26.1 10:47/M
378 Chris Gould 1058 68 M 4 65-69 33:28.8 10:48/M
379 Lara Gould 1059 29 F 34 25-29 33:33.2 10:49/M
380 Emily Jolliff 1145 15 F 18 15-19 33:33.6 10:49/M
381 Michelle Jolliff 1144 46 F 11 45-49 33:34.1 10:50/M
382 Wendy Munz Moody TX 1286 38 F 30 35-39 33:35.9 10:50/M
383 Debbie Owens Temple TX 1598 52 F 12 50-54 33:45.8 10:53/M
384 Leeann Mahoney 1224 34 F 31 30-34 33:53.6 10:56/M
385 Kortney Anderson 847 24 F 17 20-24 33:56.8 10:57/M
386 Jason Anderson 848 25 M 23 25-29 33:56.8 10:57/M
387 Erika Enriquez Holland TX 1580 20 F 18 20-24 33:58.6 10:57/M
388 Libby Nash 1292 16 F 19 15-19 34:08.6 11:01/M
389 Jenny Mabry 1219 42 F 11 40-44 34:12.5 11:02/M
390 Jennifer Speer Houston TX 1531 38 F 31 35-39 34:13.3 11:02/M
391 Shally Fisher Tonganoxie KS 1530 40 F 12 40-44 34:14.0 11:03/M
392 Richard Brann Houston TX 915 70 M 1 70-74 34:15.6 11:03/M
393 Tracy Troxell Belton TX 1448 31 F 32 30-34 34:16.9 11:03/M
394 Kurt Meyer 1258 47 M 10 45-49 34:19.0 11:04/M
395 Tammy Ferguson 1007 43 F 13 40-44 34:22.3 11:05/M
396 David Paolino 1313 29 M 24 25-29 34:23.1 11:05/M
397 Celest Austin 865 31 F 33 30-34 34:24.3 11:06/M
398 Caroline Gonzalez 1057 23 F 19 20-24 34:24.8 11:06/M
399 Abigail Lopez Garden Valley TX 1552 21 F 20 20-24 34:26.0 11:06/M
400 Cheryl Kibbe Troy TX 1167 54 F 13 50-54 34:26.6 11:06/M
 
Place Name City Bib No Age Gender Age Group Total Time Pace
401 Vincent Paolino 1311 57 M 5 55-59 34:27.1 11:07/M
402 Craig Pearson 1318 63 M 8 60-64 34:28.4 11:07/M
403 Megan Lee 1203 23 F 21 20-24 34:28.5 11:07/M
404 Jamie MacHuca 1220 26 F 35 25-29 34:29.0 11:07/M
405 Amanda Jackson Temple TX 1573 28 F 36 25-29 34:31.3 11:08/M
406 Trent Holmes Georgetown TX 1585 49 M 11 45-49 34:32.3 11:08/M
407 Mike Potchad 1343 65 M 5 65-69 34:32.4 11:08/M
408 Aj Gulley 1074 15 M 18 15-19 34:34.1 11:09/M
409 Allison Bennett 892 28 F 37 25-29 34:34.1 11:09/M
410 Amber Bartek Tx 76513 880 30 F 34 30-34 34:35.5 11:09/M
411 Lisa Payne Sour Lake TX 1316 35 F 32 35-39 34:42.0 11:12/M
412 Sherry Horsak Temple TX 1600 37 F 33 35-39 34:56.4 11:16/M
413 Kelly Hawkins 1092 31 F 35 30-34 34:56.4 11:16/M
414 Evie Jacobs Copperas Cove TX 1133 9 F 1 1- 9 35:03.8 11:18/M
415 Vanessa Flores 1025 42 F 14 40-44 35:05.2 11:19/M
416 Samuel Cheatum 948 9 M 5 1- 9 35:16.5 11:23/M
417 Kristin Cheatum Temple TX 945 34 F 36 30-34 35:22.3 11:25/M
418 Doug Windland 1501 34 M 26 30-34 35:24.8 11:25/M
419 Terri Marlatt 1236 43 F 15 40-44 35:25.3 11:25/M
420 Larae Lopez Temple TEXAS 1214 38 F 34 35-39 35:31.7 11:27/M
421 Savannah Hensley 1105 10 F 12 10-14 35:36.1 11:29/M
422 Jennifer Hensley 1102 40 F 16 40-44 35:36.2 11:29/M
423 Danielle Smith 1412 35 F 35 35-39 35:36.4 11:29/M
424 Beth Works 1505 35 F 36 35-39 35:36.7 11:29/M
425 Kade Hairston Temple TX 1081 8 M 6 1- 9 35:37.7 11:29/M
426 Bryson Lambert Little River TX 1189 10 M 20 10-14 35:38.7 11:30/M
427 Tisha Hairston Temple TX 1079 33 F 37 30-34 35:39.5 11:30/M
428 Jose M Arroliga 863 12 M 21 10-14 35:39.6 11:30/M
429 Alejandro Arroliga Temple 860 55 M 6 55-59 35:40.1 11:30/M
430 Bruce Bates 886 61 M 9 60-64 35:42.2 11:31/M
431 Mercedes Arroliga Temple 861 49 F 12 45-49 35:48.0 11:33/M
432 Allie Roby Sour Lake TX 1590 18 F 20 15-19 35:51.6 11:34/M
433 Chad Mikulas Temple,tx 76502 1261 37 M 26 35-39 35:52.7 11:34/M
434 Cole Mikulas 1262 7 M 7 1- 9 35:52.9 11:34/M
435 Tonya Hammer League City TX 1084 43 F 17 40-44 35:57.3 11:36/M
436 Kortni Fisher Belton TX 1020 19 F 21 15-19 36:00.2 11:37/M
437 Russell Norman Belton TX 1299 23 M 21 20-24 36:00.4 11:37/M
438 Deborah Brunson 927 52 F 14 50-54 36:03.3 11:38/M
439 Rebecca Cody 961 39 F 37 35-39 36:06.3 11:39/M
440 Jennifer Judd 3911 Fieldcrest Dr., Kill TX 1154 28 F 38 25-29 36:07.1 11:39/M
441 Barrett Schulz 1382 31 M 27 30-34 36:13.2 11:41/M
442 Brent Schulz 1383 20 M 22 20-24 36:13.7 11:41/M
443 Kylie Brunson 928 24 F 22 20-24 36:17.0 11:42/M
444 Joe Lopez Temple TX 1213 44 M 33 40-44 36:23.1 11:44/M
445 Jennifer Windland 1500 36 F 38 35-39 36:24.5 11:45/M
446 Cassidy Gode 1046 10 F 13 10-14 36:24.6 11:45/M
447 Ramona Taylor Temple TX 1437 51 F 15 50-54 36:31.0 11:47/M
448 Linda Blake 900 53 F 16 50-54 36:35.2 11:48/M
449 Valerie Flores 1023 37 F 39 35-39 36:51.1 11:53/M
450 Thomas Pickett Temple TX 1329 62 M 10 60-64 36:54.9 11:54/M
451 Isabelle Gutierrez 1077 12 F 14 10-14 37:06.2 11:58/M
452 Chad Coerse 964 40 M 34 40-44 37:07.2 11:58/M
453 Gwen Ficker Belton 1014 40 F 18 40-44 37:12.2 12:00/M
454 Peggy Journey Puyallup WA 1568 30 F 38 30-34 37:13.8 12:00/M
455 Christine Pickett 1328 57 F 5 55-59 37:17.3 12:02/M
456 Carina Mendoza 1250 18 F 22 15-19 37:17.7 12:02/M
457 Kristine Tapp 1434 55 F 6 55-59 37:17.7 12:02/M
458 Tanya McGowan Temple TX 1528 45 F 13 45-49 37:22.9 12:03/M
459 Rosemary Jacobs 1135 43 F 19 40-44 37:24.8 12:04/M
460 Tori Jacobs Copperas Cove TX 1136 8 F 2 1- 9 37:24.9 12:04/M
461 Cynthia Gibson Temple TX 1556 49 F 14 45-49 37:26.6 12:05/M
462 Lafonda Wells 1488 34 F 39 30-34 37:28.5 12:05/M
463 Megan Grigsby 1067 26 F 39 25-29 37:30.0 12:06/M
464 Brianna Harrison Cibolo TX 1614 13 F 15 10-14 37:30.3 12:06/M
465 Nicholas Dewitt 990 7 M 8 1- 9 37:31.2 12:06/M
466 Jackie Buval 933 35 F 40 35-39 37:31.3 12:06/M
467 Sheryl Messer 1255 42 F 20 40-44 37:38.7 12:08/M
468 Kimberly Nesmith Georgetown TX 1295 40 F 21 40-44 37:40.5 12:09/M
469 Josephine Nesmith Georgetown TX 1297 15 F 23 15-19 37:40.7 12:09/M
470 Brett Lingle 1308 Harvest Dr., Nolanvi 1210 49 M 12 45-49 37:57.0 12:15/M
471 Stacie Kline Temple TX 1171 42 F 22 40-44 37:57.3 12:15/M
472 Jessie Oestreich Belton TEXAS 1300 33 F 40 30-34 37:58.8 12:15/M
473 John Holmes Belton TX 1592 47 M 13 45-49 38:01.4 12:16/M
474 Windee Skrabanek Temple TX 1410 35 F 41 35-39 38:09.3 12:18/M
475 Anthony Bollinger 907 41 M 35 40-44 38:10.4 12:19/M
476 Tisha Enriquez Holland TX 1582 27 F 40 25-29 38:15.7 12:20/M
477 Brittney Hanson Temple TX 1087 26 F 41 25-29 38:19.8 12:22/M
478 Meredith Cole 967 27 F 42 25-29 38:20.1 12:22/M
479 Kristi Paulsen Temple TEXAS 1314 36 F 42 35-39 38:23.0 12:23/M
480 Olivia Paulsen 1315 11 F 16 10-14 38:23.3 12:23/M
481 Neil Urban 1455 36 M 27 35-39 38:31.6 12:25/M
482 Molly Clark 953 23 F 23 20-24 38:31.9 12:25/M
483 Katie Clark 952 18 F 24 15-19 38:32.4 12:26/M
484 Chandler Jones 1148 19 F 25 15-19 38:33.1 12:26/M
485 Adrian Rodriguez 1366 37 M 28 35-39 38:40.0 12:28/M
486 Ron Carroll 941 62 M 11 60-64 38:40.9 12:28/M
487 Phillip Reilly 1355 71 M 2 70-74 38:44.3 12:30/M
488 Kirsten Swain 1433 28 F 43 25-29 38:45.1 12:30/M
489 John Reilly 1634 31 M 28 30-34 38:45.3 12:30/M
490 Donna Reilly Temple TX 1354 59 F 7 55-59 38:45.4 12:30/M
491 Jon Hansen 1086 53 M 14 50-54 38:45.6 12:30/M
492 Keenan Swain 1432 29 M 25 25-29 38:45.9 12:30/M
493 Andi Cyr 976 18 F 26 15-19 38:56.6 12:34/M
494 Amanda Hinshaw 1112 27 F 44 25-29 39:02.0 12:35/M
495 Dawn Palm 1306 48 F 15 45-49 39:02.9 12:35/M
496 Katlyn Holland 1117 21 F 24 20-24 39:03.0 12:36/M
497 Scott Schwindt Temple TX 1387 49 M 14 45-49 39:04.2 12:36/M
498 Kaia Philen Belton TX 1324 11 F 17 10-14 39:28.5 12:44/M
499 Shan Bates 885 35 F 43 35-39 39:31.2 12:45/M
500 Gaylynne Schob 1379 42 F 23 40-44 39:46.9 12:50/M
 
Place Name City Bib No Age Gender Age Group Total Time Pace
501 Emma Poehlmann 1335 15 F 27 15-19 39:57.6 12:53/M
502 Justin Byrd 1622 35 M 29 35-39 39:58.4 12:54/M
503 Kaitlin Kendall 1165 8 F 3 1- 9 39:58.7 12:54/M
504 Julia Finn 1623 30 F 41 30-34 39:59.3 12:54/M
505 Laura Post 1340 9 F 4 1- 9 39:59.9 12:54/M
506 Violet Vianes Belton TX 1473 46 F 16 45-49 40:09.4 12:57/M
507 Amy Hightower Troy TX 1110 37 F 44 35-39 40:11.8 12:58/M
508 Darby Hamm 1082 16 F 28 15-19 40:30.7 13:04/M
509 Heatheranne Hamm 1083 18 F 29 15-19 40:31.5 13:04/M
510 Lisa Post 1339 41 F 24 40-44 40:32.7 13:05/M
511 Leah Anderson 850 30 F 42 30-34 40:47.0 13:09/M
512 Don Moore 1269 60 M 12 60-64 40:47.5 13:09/M
513 Rob Grooms Pearland TX 1575 41 M 36 40-44 40:48.8 13:10/M
514 Linda Moore 1270 55 F 8 55-59 40:49.0 13:10/M
515 Charlie Grooms Pearland TX 1576 6 M 9 1- 9 40:50.0 13:10/M
516 Molly Jones Belton TX 1147 36 F 45 35-39 40:55.3 13:12/M
517 Caleigh Johnson Georgetown TX 1139 14 F 18 10-14 40:59.8 13:13/M
518 Jarod Kendall 1164 10 M 22 10-14 41:00.5 13:14/M
519 Micaela Betts 895 16 F 30 15-19 41:08.5 13:16/M
520 Ann Crawford Temple TX 972 53 F 17 50-54 41:11.8 13:17/M
521 Traci Briggs Temple TX 920 42 F 25 40-44 41:13.7 13:18/M
522 Orin Kendall 1162 36 M 30 35-39 41:19.7 13:20/M
523 Glenna Kendall 1163 35 F 46 35-39 41:20.0 13:20/M
524 Danielle Taylor 1438 36 F 47 35-39 41:22.3 13:21/M
525 Ramona Malcik 1225 46 F 17 45-49 41:29.9 13:23/M
526 Noah Dewitt 989 7 M 10 1- 9 41:30.0 13:23/M
527 Mary Garcia 1042 61 F 3 60-64 41:42.3 13:27/M
528 Kimberly White 1493 28 F 45 25-29 41:45.5 13:28/M
529 Jack Brink 922 33 M 29 30-34 41:50.5 13:30/M
530 Elizabeth Brink Harker Heights TX 921 8 F 5 1- 9 41:50.7 13:30/M
531 Ruth Lee Copperas Cove TX 1201 46 F 18 45-49 41:56.3 13:32/M
532 Dorothy Kohutek Troy TX 1175 61 F 4 60-64 41:59.7 13:33/M
533 Diego Alonzo 842 5 M 11 1- 9 42:13.0 13:37/M
534 Javier Alonzo 843 57 M 7 55-59 42:13.2 13:37/M
535 Kim Johnson Georgetown TX 1140 47 F 19 45-49 42:15.8 13:38/M
536 Josie Guerrero Porter TX 1073 60 F 5 60-64 42:16.6 13:38/M
537 Shelby Rogers 1371 47 F 20 45-49 42:16.9 13:38/M
538 Joanna Fetherman 1012 15 F 31 15-19 42:18.8 13:39/M
539 Allison Ziegler 1509 35 F 48 35-39 42:19.5 13:39/M
540 Madilyn Ziegler 1511 6 F 6 1- 9 42:20.1 13:39/M
541 Marlene Poehlmann 1337 42 F 26 40-44 42:21.4 13:40/M
542 Mary Rongey 1374 15 F 32 15-19 42:21.5 13:40/M
543 Crystal Hammond 1085 39 F 49 35-39 42:24.6 13:41/M
544 Jacob Sellers 1395 14 M 23 10-14 42:27.5 13:42/M
545 Becky Isbell Harker Heights TX 1602 35 F 50 35-39 42:41.6 13:46/M
546 Jess Hamilton Harker Heights TX 1547 71 M 3 70-74 42:47.0 13:48/M
547 Bryan Armstrong 859 12 M 24 10-14 42:55.9 13:51/M
548 Heather Cody 959 37 F 51 35-39 42:58.2 13:52/M
549 Cambrie Luce 1218 11 F 19 10-14 43:05.1 13:54/M
550 Kate Mazelova 1513 17 F 33 15-19 43:05.3 13:54/M
551 Mary Graedtke 1061 66 F 2 65-69 43:11.8 13:56/M
552 Lorane Gode 1047 62 F 6 60-64 43:23.6 14:00/M
553 Michele Friedrich 1031 48 F 21 45-49 43:25.6 14:00/M
554 Morgan McClain 1245 17 F 34 15-19 43:28.2 14:01/M
555 Patrick Shelborne 1400 54 M 15 50-54 43:28.8 14:01/M
556 Jan Ward 1485 68 F 3 65-69 43:34.2 14:03/M
557 Sharon Phillips Copperas Cove TX 1326 58 F 9 55-59 43:48.3 14:08/M
558 Neil Poehlmann 1338 38 M 31 35-39 43:57.0 14:11/M
559 Shelbi Avery Temple TX 1597 8 F 7 1- 9 44:06.1 14:14/M
560 Kirbi Barbosa 876 26 F 46 25-29 44:06.4 14:14/M
561 Robin King Killeen TX 1170 43 F 27 40-44 44:08.5 14:14/M
562 Bianca Shelborne 1399 22 F 25 20-24 44:13.6 14:16/M
563 Vonceil Joseph-Shelborne 1152 54 M 16 50-54 44:17.6 14:17/M
564 Bonnie Feldt Temple TEXAS 1006 32 F 43 30-34 44:18.6 14:17/M
565 Trey Urban Temple,tx 76502 1456 10 M 25 10-14 44:40.0 14:25/M
566 Timothy Dornon Temple TX 994 57 M 8 55-59 45:07.7 14:33/M
567 Katrina Martin 1237 37 F 52 35-39 45:10.9 14:34/M
568 Joanna Stewart 1426 53 F 18 50-54 45:12.6 14:35/M
569 Angela Vasquez Temple TX 1558 43 F 28 40-44 45:19.4 14:37/M
570 Micheal Mills 1266 34 M 30 30-34 45:22.9 14:38/M
571 Patricia Cody 962 67 F 4 65-69 45:23.0 14:38/M
572 Lisa Mills 1265 32 F 44 30-34 45:23.2 14:38/M
573 Amy Armstrong 858 43 F 29 40-44 45:24.3 14:39/M
574 Elizabeth Gutierrez 1076 32 F 45 30-34 45:52.3 14:48/M
575 Lizeth Escovedo 1003 19 F 35 15-19 45:54.1 14:48/M
576 John R. Escovedo 1001 51 M 17 50-54 45:56.1 14:49/M
577 Thea Lancaster Belton TX 1191 11 F 20 10-14 46:12.1 14:54/M
578 Rebecca Kidder 1168 35 F 53 35-39 46:21.5 14:57/M
579 Chase Nieves Lavernin TX 1609 16 M 19 15-19 46:29.8 15:00/M
580 Celestina Nieves Lavernia 1610 12 F 21 10-14 46:31.0 15:00/M
581 Elizabeth Fetherman 1011 18 F 36 15-19 46:43.8 15:04/M
582 Jim Fetherman 1010 57 M 9 55-59 46:44.7 15:05/M
583 Sue Fetherman Belton TX 1013 50 F 19 50-54 46:54.3 15:08/M
584 Katie Messer 1256 19 F 37 15-19 46:54.4 15:08/M
585 Christina Schescke 1377 42 F 30 40-44 47:21.1 15:16/M
586 Chelsea Boston 909 24 F 26 20-24 47:22.0 15:17/M
587 Donna Bowling 911 64 F 7 60-64 47:39.1 15:22/M
588 Carol Fischer 1018 64 F 8 60-64 47:46.8 15:25/M
589 Erica Mendoza 1251 17 F 38 15-19 47:49.7 15:25/M
590 Dhriti Mukhopadhyay 1281 29 F 47 25-29 47:51.6 15:26/M
591 Seth Neves Laveinin TX 1608 7 M 12 1- 9 47:52.3 15:26/M
592 Erik Nieves Lavernia TX 1612 46 M 15 45-49 47:53.7 15:27/M
593 Brenda Nieves Lavernia 1613 47 F 22 45-49 48:00.2 15:29/M
594 Retha Schulz 1384 57 F 10 55-59 48:03.7 15:30/M
595 William Cleveland 957 21 M 23 20-24 48:04.1 15:30/M
596 Sarah Whitmire 1494 23 F 27 20-24 48:04.3 15:30/M
597 Patricia Martinez-Blanco 1239 52 F 20 50-54 48:09.4 15:32/M
598 Kristi Kelley 1160 38 F 54 35-39 48:13.9 15:33/M
599 Jennifer Demieville 986 28 F 48 25-29 48:32.5 15:39/M
600 Kirk Fischer 1019 61 M 13 60-64 48:40.2 15:42/M
 
Place Name City Bib No Age Gender Age Group Total Time Pace
601 Rick Hawkins 1094 42 M 37 40-44 48:41.2 15:42/M
602 Josh Guajardo 1069 51 M 18 50-54 49:02.5 15:49/M
603 Patrick Stewart, Sr 1427 53 M 19 50-54 49:02.9 15:49/M
604 Paula Paolino 1312 64 F 9 60-64 49:10.5 15:52/M
605 Jenni Baird Pasadena,ca 91104 871 35 F 55 35-39 49:51.8 16:05/M
606 Andrew Baird Pasadena,ca 91104 869 27 M 26 25-29 49:52.5 16:05/M
607 Becky Guajardo 1068 52 F 21 50-54 50:13.4 16:12/M
608 Britney Haywood Dallas TX 1099 22 F 28 20-24 50:14.9 16:12/M
609 Mimi Enriquez Temple TX 1514 56 F 11 55-59 50:15.5 16:13/M
610 Grady Cook 968 22 M 24 20-24 50:15.6 16:13/M
611 Ramiro Peņa 1321 78 M 2 75-99 50:18.3 16:14/M
612 Jamie Deady 983 31 F 46 30-34 50:18.7 16:14/M
613 Jacob Bates 889 28 M 27 25-29 50:19.5 16:14/M
614 Grant Bates 884 33 M 31 30-34 50:20.2 16:14/M
615 Leslie Berryhill 893 60 F 10 60-64 50:22.1 16:15/M
616 Lynda Schumann 1386 62 F 11 60-64 50:22.6 16:15/M
617 Heather Mikulas 1263 37 F 56 35-39 50:28.6 16:17/M
618 Deborah Jones 1151 58 F 12 55-59 50:34.0 16:19/M
619 Cristina Torres Temple TX 1534 23 F 29 20-24 50:48.6 16:23/M
620 Anna Valdivia 1459 31 F 47 30-34 50:48.7 16:23/M
621 Douglas Brito 1627 8 M 13 1- 9 50:57.5 16:26/M
622 William Brito 1626 6 M 14 1- 9 51:02.2 16:28/M
623 Veronica Brito 1628 38 F 57 35-39 51:14.2 16:32/M
624 Lea Atkinson 864 29 F 49 25-29 51:22.2 16:34/M
625 Estela Moran Temple TX 1277 61 F 12 60-64 51:24.1 16:35/M
626 Antoinette Catania Temple TX 1601 66 F 5 65-69 51:27.1 16:36/M
627 Van Reif 1352 66 M 6 65-69 51:36.2 16:39/M
628 Susan Walker 1480 49 F 23 45-49 51:43.3 16:41/M
629 Kevin Moore 1274 50 M 20 50-54 51:43.4 16:41/M
630 Libby Barton Belton TX 881 59 F 13 55-59 51:56.7 16:45/M
631 Kristy Barton Copperas Cove TX 882 35 F 58 35-39 51:57.5 16:45/M
632 Jane Casey Alvarado TX 1546 49 F 24 45-49 52:09.0 16:49/M
633 Merryl Reif 1353 60 F 13 60-64 52:23.7 16:54/M
634 Cayden Brown Belton TX 1557 14 M 26 10-14 52:38.6 16:59/M
635 Lisa Schwindt Temple TX 1388 46 F 25 45-49 52:48.4 17:02/M
636 Cynthia Uresti Belton TX 1457 31 F 48 30-34 53:24.1 17:14/M
637 Helen Trottmann 1446 7 F 8 1- 9 53:25.9 17:14/M
638 Emily Riemer 1360 26 F 50 25-29 53:26.8 17:14/M
639 David Baird 870 58 M 10 55-59 53:29.0 17:15/M
640 Corey Coerse 966 12 M 27 10-14 53:31.6 17:16/M
641 Christina Urban 1454 31 F 49 30-34 53:49.7 17:22/M
642 Malia Palmer 1309 10 F 22 10-14 54:02.2 17:26/M
643 Phillip Velarde Killeen TX 1468 14 M 28 10-14 54:06.1 17:27/M
644 Juanita Escovedo 1002 39 F 59 35-39 54:12.6 17:29/M
645 Isabel Poehlmann 1336 12 F 23 10-14 54:18.7 17:31/M
646 Vanessa Tucker 1453 14 F 24 10-14 54:28.6 17:34/M
647 Paige Brink Harker Heights TX 923 5 F 9 1- 9 54:39.6 17:38/M
648 Rebecca Brink Harker Heights TX 924 34 F 50 30-34 54:39.9 17:38/M
649 Abigail Blount Belton TX 905 11 F 25 10-14 54:53.1 17:42/M
650 Julia Blount Belton TX 903 37 F 60 35-39 54:54.4 17:43/M
651 Ed Nash 1290 55 M 11 55-59 54:56.4 17:43/M
652 Amy Nash 1289 57 F 14 55-59 54:57.1 17:44/M
653 Carleigh Bates 888 25 F 51 25-29 54:58.3 17:44/M
654 Martyn Deady 984 35 M 32 35-39 54:58.7 17:44/M
655 Conor Deady 985 7 M 15 1- 9 54:58.9 17:44/M
656 Alanna Phillips Copperas Cove TX 1325 32 F 51 30-34 55:01.0 17:45/M
657 Chase Coerse 965 14 M 29 10-14 55:27.5 17:53/M
658 James Diddle 991 34 M 32 30-34 55:29.6 17:54/M
659 Donna Coerse 963 43 F 31 40-44 55:30.1 17:54/M
660 Eric John 1138 39 M 33 35-39 56:13.0 18:08/M
661 Carrie Borden John 908 44 F 32 40-44 56:15.2 18:09/M
662 Jennifer Herron 1107 34 F 52 30-34 56:56.8 18:22/M
663 Aaron Guerrero Porter TX 1071 28 M 28 25-29 57:33.2 18:34/M
664 Patricia Guerrero Porter TX 1072 27 F 52 25-29 57:33.3 18:34/M
665 Jessica Rhodes 1357 41 F 33 40-44 57:42.3 18:37/M
666 Christin Malone 1227 26 F 53 25-29 57:43.0 18:37/M
667 Amanda Gandara 1041 22 F 30 20-24 58:21.3 18:49/M
668 Monica Ramos 1349 26 F 54 25-29 58:21.3 18:49/M
669 Katharine Palmer 1310 6 F 10 1- 9 58:25.4 18:51/M
670 Rochelle Palmer 1308 39 F 61 35-39 58:25.9 18:51/M
671 Katie Gomez 1048 22 F 31 20-24 58:51.9 18:59/M
672 Janice Meyer 1257 48 F 26 45-49 58:52.0 18:59/M
673 Jennie Miller 1264 46 F 27 45-49 1:00:35.0 19:33/M
674 Claudia Fuentes 1032 30 F 53 30-34 1:00:35.5 19:33/M
675 Juana Rivera Temple TX 1551 58 F 15 55-59 1:00:35.8 19:33/M
676 Charly Skaggs 1409 62 M 14 60-64 1:01:12.5 19:45/M
677 Kerrie Vancuran 1461 25 F 55 25-29 1:03:18.0 20:25/M
678 Lezlie McNew Temple,tx 76502 TX 1248 63 F 14 60-64 1:03:23.2 20:27/M
679 Michele Padilla 1305 36 F 62 35-39 1:03:49.4 20:35/M
680 Elizabeth Butler 932 52 F 22 50-54 1:03:59.0 20:38/M
681 Maria Villela 1475 54 F 23 50-54 1:04:00.3 20:39/M